createdAt,value
2022-11-27T00:00:32.820Z,11.35
2022-11-27T00:02:40.699Z,11.57
2022-11-27T00:04:46.015Z,11.65
2022-11-27T00:06:53.567Z,13.05
2022-11-27T00:11:10.669Z,12.50
2022-11-27T00:13:16.035Z,13.35
2022-11-27T00:15:21.896Z,13.73
2022-11-27T00:17:27.124Z,11.32
2022-11-27T00:19:32.082Z,11.70
2022-11-27T00:21:39.573Z,12.50
2022-11-27T00:23:47.543Z,12.43
2022-11-27T00:25:54.220Z,12.07
2022-11-27T00:27:59.608Z,11.77
2022-11-27T00:30:04.699Z,12.60
2022-11-27T00:32:09.961Z,13.88
2022-11-27T00:34:14.927Z,14.07
2022-11-27T00:36:19.955Z,13.55
2022-11-27T00:38:25.998Z,13.40
2022-11-27T00:40:33.794Z,11.82
2022-11-27T00:42:39.159Z,12.77
2022-11-27T00:44:44.335Z,12.40
2022-11-27T00:46:50.068Z,12.60
2022-11-27T00:48:55.100Z,12.18
2022-11-27T00:51:03.436Z,12.93
2022-11-27T00:55:15.423Z,12.95
2022-11-27T00:57:22.973Z,14.05
2022-11-27T00:59:29.122Z,11.10
2022-11-27T01:01:38.169Z,11.48
2022-11-27T01:03:43.209Z,11.27
2022-11-27T01:05:48.225Z,13.93
2022-11-27T01:07:53.519Z,13.25
2022-11-27T01:09:59.359Z,11.63
2022-11-27T01:12:04.687Z,10.45
2022-11-27T01:14:17.127Z,11.95
2022-11-27T01:16:25.169Z,11.38
2022-11-27T01:18:31.036Z,10.48
2022-11-27T01:20:36.399Z,10.40
2022-11-27T01:22:42.067Z,10.98
2022-11-27T01:24:47.458Z,11.10
2022-11-27T01:26:53.127Z,10.00
2022-11-27T01:29:00.279Z,10.00
2022-11-27T01:31:14.346Z,11.25
2022-11-27T01:33:19.801Z,11.23
2022-11-27T01:35:25.140Z,10.88
2022-11-27T01:37:30.871Z,11.13
2022-11-27T01:39:35.884Z,11.52
2022-11-27T01:41:42.672Z,11.98
2022-11-27T01:43:50.944Z,12.48
2022-11-27T01:45:55.929Z,11.90
2022-11-27T01:48:06.019Z,12.85
2022-11-27T01:50:18.291Z,11.30
2022-11-27T01:52:29.793Z,11.68
2022-11-27T01:54:40.399Z,12.18
2022-11-27T01:56:49.520Z,11.38
2022-11-27T01:58:54.858Z,10.73
2022-11-27T02:01:01.233Z,11.18
2022-11-27T02:03:09.850Z,10.18
2022-11-27T02:05:20.389Z,10.23
2022-11-27T02:07:27.341Z,10.05
2022-11-27T02:09:34.191Z,10.02
2022-11-27T02:11:54.808Z,10.75
2022-11-27T02:14:13.488Z,11.10
2022-11-27T02:16:30.135Z,10.20
2022-11-27T02:18:46.334Z,9.82
2022-11-27T02:21:00.808Z,9.85
2022-11-27T02:23:50.785Z,10.20
2022-11-27T02:26:21.050Z,10.02
2022-11-27T02:28:45.920Z,10.10
2022-11-27T02:31:00.608Z,9.55
2022-11-27T02:33:14.082Z,10.23
2022-11-27T02:35:25.956Z,10.15
2022-11-27T02:37:38.392Z,10.32
2022-11-27T02:39:52.580Z,8.90
2022-11-27T02:42:06.292Z,9.80
2022-11-27T02:44:13.550Z,9.65
2022-11-27T02:46:23.618Z,9.52
2022-11-27T02:48:36.040Z,10.57
2022-11-27T02:50:44.769Z,9.68
2022-11-27T02:52:53.160Z,9.23
2022-11-27T02:55:03.425Z,8.95
2022-11-27T02:57:12.016Z,10.00
2022-11-27T02:59:20.290Z,9.48
2022-11-27T03:01:31.097Z,10.32
2022-11-27T03:03:45.629Z,10.85
2022-11-27T03:05:55.560Z,11.57
2022-11-27T03:08:05.642Z,10.63
2022-11-27T03:10:19.295Z,10.10
2022-11-27T03:12:26.344Z,9.88
2022-11-27T03:14:32.205Z,9.88
2022-11-27T03:16:47.748Z,9.45
2022-11-27T03:19:02.164Z,10.13
2022-11-27T03:21:19.077Z,9.82
2022-11-27T03:23:25.193Z,9.63
2022-11-27T03:25:30.240Z,10.27
2022-11-27T03:27:41.482Z,9.05
2022-11-27T03:29:51.791Z,10.02
2022-11-27T03:32:00.683Z,9.77
2022-11-27T03:34:07.091Z,10.35
2022-11-27T03:36:19.052Z,8.63
2022-11-27T03:38:24.318Z,9.25
2022-11-27T03:40:37.259Z,9.18
2022-11-27T03:42:56.984Z,8.65
2022-11-27T03:45:14.107Z,6.88
2022-11-27T03:47:42.902Z,9.85
2022-11-27T03:50:08.569Z,10.30
2022-11-27T03:52:27.183Z,11.52
2022-11-27T03:54:44.916Z,9.63
2022-11-27T03:56:58.686Z,9.23
2022-11-27T03:59:11.912Z,9.30
2022-11-27T04:01:22.256Z,8.43
2022-11-27T04:03:34.351Z,9.43
2022-11-27T04:05:39.816Z,8.82
2022-11-27T04:07:45.921Z,9.23
2022-11-27T04:09:50.905Z,8.40
2022-11-27T04:11:56.228Z,8.70
2022-11-27T04:14:01.972Z,10.55
2022-11-27T04:16:07.921Z,11.30
2022-11-27T04:18:12.927Z,7.90
2022-11-27T04:20:20.749Z,9.20
2022-11-27T04:22:25.771Z,8.32
2022-11-27T04:24:31.990Z,10.32
2022-11-27T04:26:36.964Z,10.07
2022-11-27T04:28:42.484Z,9.68
2022-11-27T04:30:48.107Z,12.20
2022-11-27T04:32:53.245Z,10.60
2022-11-27T04:34:58.536Z,10.45
2022-11-27T04:37:06.574Z,9.90
2022-11-27T04:39:13.204Z,9.82
2022-11-27T04:41:18.147Z,9.40
2022-11-27T04:43:23.730Z,8.77
2022-11-27T04:45:28.735Z,10.77
2022-11-27T04:47:34.680Z,10.63
2022-11-27T04:49:40.084Z,9.38
2022-11-27T04:51:45.820Z,11.23
2022-11-27T04:53:55.555Z,10.60
2022-11-27T04:56:00.949Z,10.80
2022-11-27T04:58:06.578Z,9.60
2022-11-27T05:00:15.471Z,9.32
2022-11-27T05:02:22.858Z,9.95
2022-11-27T05:04:28.244Z,8.38
2022-11-27T05:06:33.575Z,10.40
2022-11-27T05:08:39.617Z,10.38
2022-11-27T05:10:47.679Z,11.50
2022-11-27T05:12:53.271Z,10.27
2022-11-27T05:15:03.022Z,10.40
2022-11-27T05:17:09.754Z,10.02
2022-11-27T05:19:16.007Z,9.38
2022-11-27T05:21:21.340Z,10.50
2022-11-27T05:23:27.251Z,9.63
2022-11-27T05:25:32.203Z,10.38
2022-11-27T05:27:39.760Z,9.73
2022-11-27T05:29:45.028Z,9.43
2022-11-27T05:31:50.392Z,8.65
2022-11-27T05:33:55.583Z,9.70
2022-11-27T05:36:03.022Z,9.82
2022-11-27T05:38:08.179Z,9.52
2022-11-27T05:40:14.245Z,10.98
2022-11-27T05:42:19.628Z,10.60
2022-11-27T05:44:27.206Z,10.63
2022-11-27T05:46:32.585Z,10.32
2022-11-27T05:48:38.328Z,10.15
2022-11-27T05:50:43.397Z,10.55
2022-11-27T05:52:48.723Z,9.55
2022-11-27T05:54:54.995Z,9.68
2022-11-27T05:57:00.357Z,10.32
2022-11-27T05:59:05.460Z,10.13
2022-11-27T06:01:14.720Z,10.05
2022-11-27T06:03:20.497Z,10.18
2022-11-27T06:05:25.990Z,9.15
2022-11-27T06:07:30.978Z,7.93
2022-11-27T06:09:35.995Z,8.38
2022-11-27T06:11:40.951Z,8.45
2022-11-27T06:13:47.642Z,9.80
2022-11-27T06:15:53.160Z,18.02
2022-11-27T06:18:01.215Z,15.13
2022-11-27T06:20:07.710Z,9.82
2022-11-27T06:22:12.689Z,12.40
2022-11-27T06:24:18.203Z,13.70
2022-11-27T06:26:26.295Z,10.50
2022-11-27T06:29:10.920Z,10.90
2022-11-27T06:31:18.846Z,9.88
2022-11-27T06:33:29.778Z,9.05
2022-11-27T06:35:35.442Z,8.43
2022-11-27T06:37:40.449Z,9.20
2022-11-27T06:39:45.456Z,9.30
2022-11-27T06:41:50.484Z,8.80
2022-11-27T06:43:55.864Z,9.30
2022-11-27T06:46:02.460Z,8.98
2022-11-27T06:48:07.897Z,8.38
2022-11-27T06:50:15.586Z,9.35
2022-11-27T06:52:20.972Z,9.10
2022-11-27T06:54:26.710Z,9.68
2022-11-27T06:56:35.519Z,9.40
2022-11-27T06:58:41.284Z,8.43
2022-11-27T07:00:46.300Z,14.05
2022-11-27T07:02:56.882Z,8.18
2022-11-27T07:05:01.835Z,8.05
2022-11-27T07:07:09.457Z,8.57
2022-11-27T07:09:14.960Z,9.18
2022-11-27T07:11:23.159Z,11.18
2022-11-27T07:13:28.375Z,11.20
2022-11-27T07:15:33.901Z,10.50
2022-11-27T07:17:39.296Z,12.52
2022-11-27T07:19:44.981Z,10.55
2022-11-27T07:21:49.917Z,9.45
2022-11-27T07:23:59.712Z,11.50
2022-11-27T07:26:09.357Z,13.45
2022-11-27T07:28:18.662Z,11.52
2022-11-27T07:30:24.332Z,10.93
2022-11-27T07:32:29.465Z,12.25
2022-11-27T07:34:34.431Z,12.98
2022-11-27T07:36:39.743Z,11.70
2022-11-27T07:38:45.082Z,13.13
2022-11-27T07:40:54.031Z,12.60
2022-11-27T07:43:01.500Z,11.85
2022-11-27T07:45:07.204Z,12.73
2022-11-27T07:47:12.213Z,11.93
2022-11-27T07:49:17.246Z,11.52
2022-11-27T07:51:25.042Z,12.77
2022-11-27T07:53:30.058Z,11.45
2022-11-27T07:55:35.114Z,9.93
2022-11-27T07:57:43.355Z,11.07
2022-11-27T07:59:48.400Z,10.77
2022-11-27T08:01:55.006Z,10.55
2022-11-27T08:04:00.545Z,10.80
2022-11-27T08:06:06.017Z,13.90
2022-11-27T08:08:11.454Z,12.48
2022-11-27T08:10:16.609Z,11.52
2022-11-27T08:12:21.542Z,12.38
2022-11-27T08:14:29.515Z,12.88
2022-11-27T08:16:36.758Z,11.80
2022-11-27T08:18:44.091Z,13.23
2022-11-27T08:20:49.995Z,13.25
2022-11-27T08:23:02.771Z,12.30
2022-11-27T08:25:09.813Z,14.23
2022-11-27T08:27:15.141Z,14.32
2022-11-27T08:29:20.280Z,13.05
2022-11-27T08:31:28.130Z,14.52
2022-11-27T08:33:35.910Z,14.48
2022-11-27T08:35:42.219Z,14.07
2022-11-27T08:37:48.375Z,14.80
2022-11-27T08:39:53.661Z,16.08
2022-11-27T08:42:00.806Z,16.15
2022-11-27T08:44:09.346Z,14.98
2022-11-27T08:46:16.884Z,16.15
2022-11-27T08:48:26.396Z,17.13
2022-11-27T08:50:33.202Z,18.10
2022-11-27T08:52:38.120Z,18.02
2022-11-27T08:54:44.291Z,17.95
2022-11-27T09:00:10.074Z,16.95
2022-11-27T09:02:19.043Z,18.75
2022-11-27T09:04:31.082Z,17.70
2022-11-27T09:06:41.002Z,20.27
2022-11-27T09:08:47.752Z,20.33
2022-11-27T09:10:55.578Z,21.57
2022-11-27T09:15:06.844Z,19.98
2022-11-27T09:24:06.072Z,16.70
2022-11-27T09:26:14.868Z,17.92
2022-11-27T09:28:20.201Z,18.40
2022-11-27T09:30:25.427Z,19.20
2022-11-27T09:32:33.712Z,19.00
2022-11-27T09:34:39.117Z,20.05
2022-11-27T09:36:44.471Z,18.95
2022-11-27T09:38:50.094Z,18.38
2022-11-27T09:41:04.530Z,17.10
2022-11-27T09:43:15.360Z,17.88
2022-11-27T09:45:22.027Z,15.48
2022-11-27T09:47:41.692Z,12.77
2022-11-27T09:49:52.607Z,12.55
2022-11-27T09:52:05.628Z,11.05
2022-11-27T09:54:19.860Z,10.15
2022-11-27T09:56:28.603Z,8.30
2022-11-27T09:58:41.663Z,7.70
2022-11-27T10:00:47.303Z,8.32
2022-11-27T10:02:52.491Z,9.07
2022-11-27T10:05:13.497Z,8.90
2022-11-27T10:07:34.825Z,8.70
2022-11-27T10:09:58.248Z,8.23
2022-11-27T10:12:16.084Z,7.75
2022-11-27T10:14:49.772Z,7.47
2022-11-27T10:17:02.722Z,7.07
2022-11-27T10:19:18.061Z,6.93
2022-11-27T10:21:47.359Z,5.55
2022-11-27T10:24:00.017Z,5.22
2022-11-27T10:26:13.108Z,4.70
2022-11-27T10:28:32.497Z,4.40
2022-11-27T10:30:48.052Z,5.63
2022-11-27T10:32:59.693Z,5.32
2022-11-27T10:35:08.019Z,5.97
2022-11-27T10:37:22.322Z,6.07
2022-11-27T10:39:35.628Z,5.75
2022-11-27T10:41:50.147Z,6.45
2022-11-27T10:44:01.942Z,5.40
2022-11-27T10:46:15.997Z,5.20
2022-11-27T10:48:22.351Z,5.07
2022-11-27T10:50:27.311Z,4.93
2022-11-27T10:52:34.098Z,3.72
2022-11-27T10:54:42.891Z,4.30
2022-11-27T10:57:08.339Z,3.92
2022-11-27T10:59:22.314Z,3.38
2022-11-27T11:01:29.688Z,4.47
2022-11-27T11:03:35.383Z,3.75
2022-11-27T11:06:04.690Z,3.75
2022-11-27T11:08:19.262Z,3.95
2022-11-27T11:10:33.058Z,4.50
2022-11-27T11:12:38.578Z,3.55
2022-11-27T11:14:55.249Z,4.32
2022-11-27T11:17:00.270Z,3.38
2022-11-27T11:19:09.067Z,4.13
2022-11-27T11:21:22.058Z,3.92
2022-11-27T11:23:32.237Z,4.15
2022-11-27T11:25:37.404Z,4.22
2022-11-27T11:27:49.017Z,3.72
2022-11-27T11:30:01.622Z,4.10
2022-11-27T11:32:13.754Z,3.53
2022-11-27T11:34:24.560Z,3.80
2022-11-27T11:36:29.907Z,3.60
2022-11-27T11:38:35.731Z,4.00
2022-11-27T11:40:44.714Z,3.50
2022-11-27T11:42:58.213Z,3.78
2022-11-27T11:45:19.515Z,3.80
2022-11-27T11:47:29.222Z,3.55
2022-11-27T11:49:37.148Z,4.38
2022-11-27T11:52:14.834Z,3.22
2022-11-27T11:54:50.922Z,3.45
2022-11-27T11:57:00.305Z,2.88
2022-11-27T11:59:13.624Z,3.05
2022-11-27T12:01:48.284Z,3.13
2022-11-27T12:04:11.451Z,3.20
2022-11-27T12:06:33.092Z,2.80
2022-11-27T12:08:58.031Z,2.67
2022-11-27T12:11:15.187Z,3.03
2022-11-27T12:13:39.617Z,2.80
2022-11-27T12:15:52.735Z,2.50
2022-11-27T12:18:28.079Z,2.92
2022-11-27T12:20:51.770Z,3.20
2022-11-27T12:23:36.141Z,2.88
2022-11-27T12:25:48.375Z,2.67
2022-11-27T12:28:12.556Z,2.80
2022-11-27T12:30:20.713Z,2.92
2022-11-27T12:33:05.299Z,2.47
2022-11-27T12:35:35.333Z,2.65
2022-11-27T12:37:50.806Z,2.80
2022-11-27T12:40:14.775Z,2.70
2022-11-27T12:42:28.696Z,3.20
2022-11-27T12:44:53.493Z,2.55
2022-11-27T12:47:04.812Z,2.90
2022-11-27T12:49:21.941Z,2.42
2022-11-27T12:51:36.118Z,3.28
2022-11-27T12:53:49.115Z,3.88
2022-11-27T12:56:06.550Z,3.35
2022-11-27T12:58:21.137Z,3.35
2022-11-27T13:00:30.961Z,3.50
2022-11-27T13:02:43.819Z,3.50
2022-11-27T13:04:57.250Z,3.72
2022-11-27T13:07:13.083Z,4.00
2022-11-27T13:09:29.166Z,4.55
2022-11-27T13:11:39.567Z,4.40
2022-11-27T13:13:50.140Z,7.07
2022-11-27T13:16:00.576Z,4.88
2022-11-27T13:18:34.247Z,5.03
2022-11-27T13:20:43.045Z,4.70
2022-11-27T13:22:51.020Z,4.80
2022-11-27T13:27:09.668Z,3.95
2022-11-27T13:29:26.483Z,3.20
2022-11-27T13:31:37.573Z,3.27
2022-11-27T13:33:47.344Z,3.08
2022-11-27T13:35:54.939Z,3.55
2022-11-27T13:38:12.524Z,2.83
2022-11-27T13:42:29.472Z,3.08
2022-11-27T13:44:37.183Z,3.03
2022-11-27T13:46:53.930Z,3.08
2022-11-27T13:49:03.661Z,2.90
2022-11-27T13:51:11.021Z,3.78
2022-11-27T13:53:18.657Z,3.15
2022-11-27T13:55:31.446Z,3.55
2022-11-27T13:57:38.507Z,3.05
2022-11-27T13:59:44.124Z,2.33
2022-11-27T14:02:01.407Z,2.15
2022-11-27T14:06:28.852Z,2.83
2022-11-27T14:08:39.156Z,1.67
2022-11-27T14:10:54.981Z,2.58
2022-11-27T14:13:03.690Z,2.88
2022-11-27T14:15:14.002Z,3.00
2022-11-27T14:17:30.100Z,3.10
2022-11-27T14:19:41.716Z,2.90
2022-11-27T14:21:49.319Z,3.28
2022-11-27T14:23:57.324Z,3.10
2022-11-27T14:26:27.044Z,3.38
2022-11-27T14:28:33.895Z,3.58
2022-11-27T14:30:47.422Z,3.42
2022-11-27T14:32:53.577Z,3.67
2022-11-27T14:34:58.725Z,3.50
2022-11-27T14:37:05.687Z,3.40
2022-11-27T14:39:25.442Z,3.67
2022-11-27T14:41:32.534Z,3.88
2022-11-27T14:43:38.107Z,3.72
2022-11-27T14:45:48.440Z,4.32
2022-11-27T14:47:58.472Z,5.18
2022-11-27T14:50:04.728Z,4.25
2022-11-27T14:52:16.163Z,4.82
2022-11-27T14:54:29.120Z,4.63
2022-11-27T14:56:38.795Z,4.82
2022-11-27T14:58:53.452Z,4.00
2022-11-27T15:01:02.616Z,4.03
2022-11-27T15:03:13.555Z,4.13
2022-11-27T15:05:25.236Z,3.95
2022-11-27T15:07:32.611Z,3.88
2022-11-27T15:09:49.168Z,4.05
2022-11-27T15:11:56.770Z,4.55
2022-11-27T15:14:05.783Z,3.97
2022-11-27T15:16:19.192Z,4.40
2022-11-27T15:18:26.438Z,3.40
2022-11-27T15:20:42.918Z,4.18
2022-11-27T15:22:52.651Z,4.10
2022-11-27T15:25:09.452Z,4.43
2022-11-27T15:27:23.741Z,4.40
2022-11-27T15:29:38.909Z,4.63
2022-11-27T15:31:54.414Z,4.05
2022-11-27T15:34:09.016Z,4.15
2022-11-27T15:36:24.027Z,3.17
2022-11-27T15:38:29.380Z,2.88
2022-11-27T15:40:40.723Z,3.38
2022-11-27T15:42:46.419Z,2.95
2022-11-27T15:44:57.963Z,3.05
2022-11-27T15:47:05.020Z,3.10
2022-11-27T15:49:15.425Z,2.83
2022-11-27T15:51:21.015Z,2.85
2022-11-27T15:53:26.109Z,2.72
2022-11-27T15:55:33.384Z,3.15
2022-11-27T15:57:41.170Z,2.40
2022-11-27T15:59:46.136Z,3.22
2022-11-27T16:01:52.008Z,3.65
2022-11-27T16:03:57.199Z,3.55
2022-11-27T16:06:07.046Z,3.75
2022-11-27T16:08:14.020Z,3.53
2022-11-27T16:10:19.095Z,3.63
2022-11-27T16:12:24.067Z,4.07
2022-11-27T16:14:31.672Z,4.00
2022-11-27T16:16:38.020Z,4.55
2022-11-27T16:18:43.086Z,3.85
2022-11-27T16:20:48.075Z,4.28
2022-11-27T16:22:53.001Z,4.88
2022-11-27T16:24:57.990Z,3.08
2022-11-27T16:27:02.950Z,3.13
2022-11-27T16:29:10.602Z,3.28
2022-11-27T16:38:05.384Z,2.88
2022-11-27T16:40:21.331Z,3.33
2022-11-27T16:42:26.887Z,3.33
2022-11-27T16:50:45.124Z,3.30
2022-11-27T16:52:54.569Z,3.35
2022-11-27T16:55:03.591Z,3.22
2022-11-27T16:57:08.885Z,4.00
2022-11-27T16:59:17.083Z,2.88
2022-11-27T17:01:25.775Z,2.78
2022-11-27T17:03:30.988Z,3.00
2022-11-27T17:05:41.061Z,3.20
2022-11-27T17:07:46.423Z,3.72
2022-11-27T17:09:51.805Z,3.65
2022-11-27T17:15:06.058Z,3.00
2022-11-27T17:17:11.742Z,3.13
2022-11-27T17:19:39.334Z,3.42
2022-11-27T17:21:45.698Z,3.55
2022-11-27T17:23:51.361Z,3.78
2022-11-27T17:25:56.593Z,4.43
2022-11-27T17:28:03.159Z,4.75
2022-11-27T17:30:13.619Z,4.30
2022-11-27T17:32:19.797Z,5.32
2022-11-27T17:34:27.739Z,4.93
2022-11-27T17:36:37.709Z,4.85
2022-11-27T17:38:44.519Z,4.78
2022-11-27T17:40:50.207Z,5.55
2022-11-27T17:42:56.001Z,4.93
2022-11-27T17:45:01.866Z,4.53
2022-11-27T17:47:09.633Z,5.45
2022-11-27T17:49:16.467Z,5.30
2022-11-27T17:51:23.161Z,5.13
2022-11-27T17:53:28.572Z,5.80
2022-11-27T17:55:33.698Z,5.70
2022-11-27T17:57:38.702Z,6.30
2022-11-27T17:59:44.442Z,6.20
2022-11-27T18:01:52.822Z,6.15
2022-11-27T18:04:04.102Z,5.95
2022-11-27T18:06:10.280Z,6.68
2022-11-27T18:08:15.968Z,6.43
2022-11-27T18:10:22.133Z,6.75
2022-11-27T18:12:27.358Z,7.00
2022-11-27T18:14:33.072Z,6.40
2022-11-27T18:16:50.005Z,6.57
2022-11-27T18:18:55.147Z,6.93
2022-11-27T18:21:20.623Z,6.97
2022-11-27T18:23:27.892Z,6.90
2022-11-27T18:25:33.146Z,7.25
2022-11-27T18:27:38.475Z,7.03
2022-11-27T18:29:47.254Z,7.88
2022-11-27T18:37:35.294Z,4.88
2022-11-27T18:39:44.769Z,4.93
2022-11-27T18:41:50.274Z,4.72
2022-11-27T18:43:55.747Z,4.43
2022-11-27T18:46:09.517Z,4.68
2022-11-27T18:48:18.471Z,5.47
2022-11-27T18:50:30.046Z,4.93
2022-11-27T18:52:52.723Z,4.90
2022-11-27T18:54:58.497Z,4.82
2022-11-27T18:57:13.369Z,5.25
2022-11-27T18:59:18.665Z,4.55
2022-11-27T19:01:29.145Z,5.15
2022-11-27T19:03:42.861Z,5.22
2022-11-27T19:05:54.832Z,8.13
2022-11-27T19:08:06.615Z,6.00
2022-11-27T19:10:14.151Z,5.82
2022-11-27T19:12:19.632Z,5.70
2022-11-27T19:14:26.277Z,4.32
2022-11-27T19:16:36.343Z,4.95
2022-11-27T19:18:44.295Z,4.95
2022-11-27T19:20:52.748Z,4.78
2022-11-27T19:23:04.271Z,4.93
2022-11-27T19:25:11.267Z,4.97
2022-11-27T19:27:23.561Z,4.90
2022-11-27T19:29:28.949Z,4.43
2022-11-27T19:31:37.711Z,5.00
2022-11-27T19:33:44.725Z,4.78
2022-11-27T19:35:51.608Z,5.00
2022-11-27T19:38:00.987Z,4.93
2022-11-27T19:40:11.934Z,5.13
2022-11-27T19:42:19.687Z,5.07
2022-11-27T19:44:29.829Z,4.30
2022-11-27T19:46:37.700Z,5.60
2022-11-27T19:48:45.689Z,4.93
2022-11-27T19:50:53.473Z,5.25
2022-11-27T19:53:04.604Z,5.65
2022-11-27T19:55:14.928Z,6.20
2022-11-27T19:57:21.071Z,6.60
2022-11-27T19:59:29.158Z,5.88
2022-11-27T20:01:46.509Z,5.18
2022-11-27T20:03:52.521Z,6.00
2022-11-27T20:06:17.324Z,6.18
2022-11-27T20:08:31.865Z,6.18
2022-11-27T20:10:44.271Z,6.32
2022-11-27T20:12:52.601Z,6.85
2022-11-27T20:17:08.001Z,6.10
2022-11-27T20:19:18.020Z,6.90
2022-11-27T20:21:27.622Z,7.03
2022-11-27T20:23:33.443Z,7.53
2022-11-27T20:25:44.868Z,7.13
2022-11-27T20:27:50.852Z,6.57
2022-11-27T20:30:00.108Z,7.73
2022-11-27T20:32:06.912Z,7.13
2022-11-27T20:34:19.088Z,7.07
2022-11-27T20:36:32.165Z,7.05
2022-11-27T20:38:39.747Z,7.15
2022-11-27T20:40:50.119Z,7.30
2022-11-27T20:43:01.539Z,7.68
2022-11-27T20:45:10.938Z,5.55
2022-11-27T20:47:22.440Z,4.90
2022-11-27T20:49:33.773Z,4.68
2022-11-27T20:51:39.126Z,4.63
2022-11-27T20:53:50.241Z,4.50
2022-11-27T20:55:58.876Z,4.93
2022-11-27T21:00:12.126Z,5.07
2022-11-27T21:02:21.366Z,4.70
2022-11-27T21:04:28.793Z,5.15
2022-11-27T21:06:40.521Z,4.90
2022-11-27T21:08:49.361Z,4.88
2022-11-27T21:10:54.436Z,4.95
2022-11-27T21:13:04.223Z,5.15
2022-11-27T21:15:14.834Z,4.75
2022-11-27T21:17:20.066Z,4.90
2022-11-27T21:19:35.629Z,4.93
2022-11-27T21:21:43.173Z,6.35
2022-11-27T21:23:48.755Z,5.65
2022-11-27T21:25:54.105Z,6.45
2022-11-27T21:28:05.122Z,5.40
2022-11-27T21:30:14.307Z,5.70
2022-11-27T21:32:22.770Z,4.88
2022-11-27T21:34:30.060Z,5.40
2022-11-27T21:36:38.862Z,5.72
2022-11-27T21:38:45.456Z,5.07
2022-11-27T21:40:52.185Z,5.27
2022-11-27T21:42:57.524Z,4.97
2022-11-27T21:45:05.836Z,4.85
2022-11-27T21:47:13.286Z,5.90
2022-11-27T21:49:21.124Z,5.30
2022-11-27T21:53:34.689Z,5.18
2022-11-27T21:55:43.428Z,5.70
2022-11-27T21:57:48.757Z,5.38
2022-11-27T21:59:58.487Z,5.63
2022-11-27T22:02:07.442Z,5.45
2022-11-27T22:04:12.505Z,5.72
2022-11-27T22:06:20.818Z,5.63
2022-11-27T22:10:30.742Z,5.45
2022-11-27T22:12:37.627Z,5.22
2022-11-27T22:14:43.142Z,5.70
2022-11-27T22:16:49.078Z,4.90
2022-11-27T22:18:58.602Z,5.63
2022-11-27T22:21:09.388Z,4.60
2022-11-27T22:23:15.000Z,5.47
2022-11-27T22:25:22.985Z,5.80
2022-11-27T22:27:30.040Z,5.13
2022-11-27T22:29:36.685Z,5.40
2022-11-27T22:31:42.089Z,5.30
2022-11-27T22:33:49.508Z,4.90
2022-11-27T22:35:57.158Z,4.80
2022-11-27T22:38:05.168Z,5.18
2022-11-27T22:42:17.971Z,4.43
2022-11-27T22:44:23.913Z,4.72
2022-11-27T22:46:32.382Z,4.97
2022-11-27T22:48:37.714Z,5.03
2022-11-27T22:50:43.063Z,5.13
2022-11-27T22:52:53.568Z,5.40
2022-11-27T22:55:02.743Z,4.60
2022-11-27T22:57:08.042Z,4.75
2022-11-27T23:01:44.159Z,4.85
2022-11-27T23:03:49.365Z,4.80
2022-11-27T23:05:56.217Z,5.67
2022-11-27T23:08:04.525Z,5.72
2022-11-27T23:10:12.538Z,4.25
2022-11-27T23:12:17.590Z,3.90
2022-11-27T23:14:22.771Z,5.13
2022-11-27T23:16:29.659Z,5.50
2022-11-27T23:18:35.721Z,5.93
2022-11-27T23:20:44.908Z,5.57
2022-11-27T23:22:50.441Z,6.13
2022-11-27T23:24:59.056Z,4.60
2022-11-27T23:27:04.486Z,5.97
2022-11-27T23:29:10.437Z,5.85
2022-11-27T23:31:34.585Z,6.38
2022-11-27T23:33:41.252Z,6.30
2022-11-27T23:35:46.258Z,5.40
2022-11-27T23:37:53.031Z,7.07
2022-11-27T23:40:00.694Z,7.20
2022-11-27T23:42:05.843Z,7.50
2022-11-27T23:44:10.994Z,7.28
2022-11-27T23:46:20.035Z,7.22
2022-11-27T23:48:25.130Z,6.45
2022-11-27T23:50:30.196Z,6.82
2022-11-27T23:52:35.726Z,7.57
2022-11-27T23:54:41.046Z,7.45
2022-11-27T23:56:49.537Z,7.03
2022-11-27T23:58:56.737Z,6.90
